createdAt,value
2022-08-18T00:02:12.243Z,19.42
2022-08-18T00:04:57.783Z,19.40
2022-08-18T00:07:47.117Z,19.32
2022-08-18T00:10:33.827Z,19.45
2022-08-18T00:13:19.163Z,19.28
2022-08-18T00:16:04.928Z,19.26
2022-08-18T00:18:50.310Z,19.21
2022-08-18T00:21:36.063Z,19.15
2022-08-18T00:24:21.317Z,19.31
2022-08-18T00:27:06.931Z,19.39
2022-08-18T00:29:54.686Z,19.50
2022-08-18T00:32:43.174Z,19.30
2022-08-18T00:35:34.831Z,19.23
2022-08-18T00:38:24.819Z,19.10
2022-08-18T00:41:11.207Z,19.16
2022-08-18T00:43:58.402Z,19.19
2022-08-18T00:46:43.957Z,19.12
2022-08-18T00:49:29.532Z,19.10
2022-08-18T00:52:16.701Z,19.13
2022-08-18T00:55:04.003Z,19.07
2022-08-18T00:57:53.805Z,19.13
2022-08-18T01:00:39.611Z,19.07
2022-08-18T01:03:25.503Z,18.94
2022-08-18T01:06:24.138Z,18.98
2022-08-18T01:09:09.803Z,19.09
2022-08-18T01:11:56.481Z,18.90
2022-08-18T01:14:42.049Z,18.85
2022-08-18T01:17:46.603Z,18.75
2022-08-18T01:21:05.758Z,19.01
2022-08-18T01:23:53.503Z,18.98
2022-08-18T01:26:45.822Z,18.85
2022-08-18T01:29:39.102Z,18.79
2022-08-18T01:32:28.080Z,18.70
2022-08-18T01:35:17.696Z,18.75
2022-08-18T01:38:02.981Z,18.76
2022-08-18T01:41:17.213Z,18.74
2022-08-18T01:43:55.163Z,18.59
2022-08-18T01:46:41.709Z,18.54
2022-08-18T01:49:28.779Z,18.55
2022-08-18T01:52:19.524Z,18.51
2022-08-18T01:55:07.797Z,18.50
2022-08-18T01:57:53.827Z,18.36
2022-08-18T02:00:39.916Z,18.39
2022-08-18T02:03:30.347Z,18.42
2022-08-18T02:06:19.164Z,18.52
2022-08-18T02:09:24.169Z,18.47
2022-08-18T02:12:10.465Z,18.47
2022-08-18T02:14:55.930Z,18.47
2022-08-18T02:17:44.170Z,18.44
2022-08-18T02:20:29.544Z,18.45
2022-08-18T02:23:15.000Z,18.38
2022-08-18T02:26:05.158Z,18.33
2022-08-18T02:28:51.203Z,18.39
2022-08-18T02:31:36.860Z,18.43
2022-08-18T02:34:22.641Z,18.50
2022-08-18T02:37:10.894Z,18.41
2022-08-18T02:40:00.149Z,18.47
2022-08-18T02:42:46.835Z,18.47
2022-08-18T02:45:32.723Z,18.44
2022-08-18T02:48:24.252Z,18.46
2022-08-18T02:51:15.305Z,18.44
2022-08-18T02:54:00.915Z,18.30
2022-08-18T02:56:47.077Z,18.24
2022-08-18T02:59:33.565Z,18.24
2022-08-18T03:02:19.772Z,18.45
2022-08-18T03:05:07.169Z,18.40
2022-08-18T03:07:56.165Z,18.19
2022-08-18T03:10:41.829Z,18.08
2022-08-18T03:13:27.171Z,18.01
2022-08-18T03:16:13.667Z,18.07
2022-08-18T03:19:00.925Z,18.12
2022-08-18T03:21:47.591Z,17.95
2022-08-18T03:24:33.644Z,17.85
2022-08-18T03:27:19.083Z,17.87
2022-08-18T03:30:04.775Z,17.94
2022-08-18T03:32:57.760Z,17.92
2022-08-18T03:35:43.980Z,17.82
2022-08-18T03:38:29.511Z,17.74
2022-08-18T03:41:18.033Z,17.82
2022-08-18T03:44:23.672Z,17.82
2022-08-18T03:47:10.912Z,17.71
2022-08-18T03:49:56.468Z,17.59
2022-08-18T03:52:42.057Z,17.67
2022-08-18T03:55:29.399Z,17.71
2022-08-18T03:58:15.605Z,17.71
2022-08-18T04:01:03.306Z,17.69
2022-08-18T04:03:53.053Z,17.86
2022-08-18T04:06:43.852Z,17.76
2022-08-18T04:09:30.829Z,17.66
2022-08-18T04:12:17.278Z,17.61
2022-08-18T04:15:03.493Z,17.62
2022-08-18T04:18:03.415Z,17.75
2022-08-18T04:20:59.344Z,17.71
2022-08-18T04:23:45.610Z,17.74
2022-08-18T04:26:33.088Z,17.84
2022-08-18T04:29:21.134Z,17.99
2022-08-18T04:32:07.342Z,17.92
2022-08-18T04:34:52.919Z,17.87
2022-08-18T04:37:39.789Z,17.85
2022-08-18T04:40:27.399Z,17.76
2022-08-18T04:43:15.229Z,17.94
2022-08-18T04:46:02.082Z,17.98
2022-08-18T04:48:47.698Z,18.10
2022-08-18T04:52:36.519Z,18.18
2022-08-18T04:54:40.460Z,18.34
2022-08-18T04:57:26.166Z,18.55
2022-08-18T05:00:13.874Z,18.61
2022-08-18T05:03:00.259Z,18.59
2022-08-18T05:05:45.925Z,18.69
2022-08-18T05:08:31.459Z,18.67
2022-08-18T05:11:16.980Z,18.73
2022-08-18T05:14:06.145Z,18.74
2022-08-18T05:16:51.992Z,18.66
2022-08-18T05:19:42.300Z,18.90
2022-08-18T05:22:30.878Z,18.82
2022-08-18T05:25:17.386Z,18.84
2022-08-18T05:28:02.705Z,19.06
2022-08-18T05:30:48.466Z,19.13
2022-08-18T05:33:34.720Z,19.22
2022-08-18T05:36:52.973Z,19.37
2022-08-18T05:39:54.739Z,19.52
2022-08-18T05:42:41.231Z,19.66
2022-08-18T05:45:27.037Z,19.94
2022-08-18T05:48:14.145Z,20.08
2022-08-18T05:51:08.509Z,20.34
2022-08-18T05:54:14.938Z,20.52
2022-08-18T05:57:08.008Z,20.84
2022-08-18T05:59:54.519Z,21.11
2022-08-18T06:02:50.167Z,21.36
2022-08-18T06:05:41.983Z,21.39
2022-08-18T06:08:53.156Z,21.40
2022-08-18T06:11:39.066Z,21.73
2022-08-18T06:14:24.865Z,21.79
2022-08-18T06:17:38.873Z,21.92
2022-08-18T06:20:33.970Z,21.88
2022-08-18T06:23:53.261Z,22.02
2022-08-18T06:26:56.020Z,21.97
2022-08-18T06:29:56.420Z,21.78
2022-08-18T06:33:03.401Z,21.71
2022-08-18T06:35:52.119Z,21.77
2022-08-18T06:38:56.397Z,21.72
2022-08-18T06:41:48.826Z,21.76
2022-08-18T06:44:45.642Z,21.68
2022-08-18T06:47:42.326Z,21.75
2022-08-18T06:50:34.070Z,21.97
2022-08-18T06:53:27.718Z,21.62
2022-08-18T06:56:26.460Z,21.56
2022-08-18T06:59:24.216Z,22.04
2022-08-18T07:02:40.545Z,22.04
2022-08-18T07:05:29.297Z,22.13
2022-08-18T07:08:20.287Z,22.05
2022-08-18T07:11:18.058Z,22.76
2022-08-18T07:14:22.867Z,22.37
2022-08-18T07:17:10.838Z,22.27
2022-08-18T07:20:09.679Z,22.28
2022-08-18T07:23:01.226Z,22.32
2022-08-18T07:26:02.915Z,22.09
2022-08-18T07:28:52.936Z,21.94
2022-08-18T07:31:51.666Z,22.08
2022-08-18T07:34:41.158Z,22.13
2022-08-18T07:37:48.788Z,22.14
2022-08-18T07:40:45.411Z,22.13
2022-08-18T07:43:41.652Z,22.09
2022-08-18T07:46:42.678Z,22.03
2022-08-18T07:49:33.465Z,21.73
2022-08-18T07:52:43.823Z,22.09
2022-08-18T07:55:35.628Z,22.34
2022-08-18T07:58:53.440Z,22.51
2022-08-18T08:02:06.418Z,22.79
2022-08-18T08:04:58.331Z,22.89
2022-08-18T08:07:59.595Z,23.34
2022-08-18T08:11:11.117Z,23.56
2022-08-18T08:14:01.078Z,23.32
2022-08-18T08:16:51.258Z,22.85
2022-08-18T08:20:00.974Z,22.64
2022-08-18T08:23:17.319Z,22.53
2022-08-18T08:26:33.579Z,22.83
2022-08-18T08:30:00.874Z,22.92
2022-08-18T08:33:07.630Z,23.53
2022-08-18T08:36:07.873Z,23.60
2022-08-18T08:39:05.393Z,24.27
2022-08-18T08:42:30.735Z,24.40
2022-08-18T08:45:25.187Z,24.72
2022-08-18T08:48:20.921Z,24.35
2022-08-18T08:51:24.870Z,23.91
2022-08-18T08:54:30.610Z,23.59
2022-08-18T08:57:17.737Z,23.21
2022-08-18T09:00:08.694Z,23.00
2022-08-18T09:03:16.095Z,23.25
2022-08-18T09:06:27.137Z,23.41
2022-08-18T09:09:26.268Z,23.64
2022-08-18T09:12:39.978Z,23.51
2022-08-18T09:15:51.341Z,23.31
2022-08-18T09:19:19.036Z,23.65
2022-08-18T09:22:40.316Z,23.78
2022-08-18T09:25:43.289Z,24.00
2022-08-18T09:28:28.742Z,24.06
2022-08-18T09:31:19.621Z,23.88
2022-08-18T09:34:21.834Z,24.67
2022-08-18T09:37:18.880Z,24.71
2022-08-18T09:41:01.766Z,24.90
2022-08-18T09:44:17.827Z,25.28
2022-08-18T09:47:33.853Z,25.20
2022-08-18T09:50:55.173Z,25.21
2022-08-18T09:53:46.587Z,25.29
2022-08-18T09:56:54.235Z,26.25
2022-08-18T09:59:47.642Z,26.98
2022-08-18T10:02:37.584Z,28.92
2022-08-18T10:05:29.169Z,29.45
2022-08-18T10:08:21.496Z,31.53
2022-08-18T10:11:28.646Z,30.57
2022-08-18T10:14:41.986Z,34.81
2022-08-18T10:17:58.068Z,36.21
2022-08-18T10:20:58.675Z,33.10
2022-08-18T10:23:58.211Z,33.24
2022-08-18T10:26:54.065Z,33.10
2022-08-18T10:29:50.375Z,33.74
2022-08-18T10:32:44.173Z,34.83
2022-08-18T10:35:35.838Z,37.26
2022-08-18T10:38:39.171Z,37.69
2022-08-18T10:41:31.442Z,37.58
2022-08-18T10:47:33.658Z,38.17
2022-08-18T10:50:22.661Z,38.80
2022-08-18T10:53:39.802Z,37.38
2022-08-18T10:56:28.567Z,38.66
2022-08-18T10:59:28.775Z,39.96
2022-08-18T11:02:38.625Z,41.37
2022-08-18T11:05:26.441Z,40.45
2022-08-18T11:08:20.476Z,41.33
2022-08-18T11:11:33.787Z,39.83
2022-08-18T11:14:31.849Z,41.62
2022-08-18T11:17:32.997Z,41.44
2022-08-18T11:20:24.413Z,41.72
2022-08-18T11:23:16.949Z,42.69
2022-08-18T11:26:14.925Z,43.20
2022-08-18T11:29:32.313Z,41.79
2022-08-18T11:32:26.945Z,41.05
2022-08-18T11:35:20.788Z,41.74
2022-08-18T11:38:12.991Z,40.01
2022-08-18T11:41:19.506Z,40.10
2022-08-18T11:44:14.174Z,42.99
2022-08-18T11:47:30.199Z,42.02
2022-08-18T11:50:27.861Z,42.85
2022-08-18T11:53:33.262Z,40.18
2022-08-18T11:56:20.463Z,41.57
2022-08-18T11:59:25.698Z,42.32
2022-08-18T12:02:30.920Z,43.81
2022-08-18T12:05:17.948Z,45.52
2022-08-18T12:08:06.376Z,44.09
2022-08-18T12:11:26.723Z,44.57
2022-08-18T12:14:29.870Z,42.88
2022-08-18T12:17:19.149Z,41.27
2022-08-18T12:20:11.843Z,42.42
2022-08-18T12:22:57.897Z,41.19
2022-08-18T12:25:43.398Z,42.62
2022-08-18T12:28:29.070Z,44.39
2022-08-18T12:31:15.163Z,44.05
2022-08-18T12:34:02.665Z,41.04
2022-08-18T12:36:48.591Z,43.41
2022-08-18T12:39:35.766Z,44.84
2022-08-18T12:42:21.946Z,43.91
2022-08-18T12:45:08.822Z,43.22
2022-08-18T12:47:54.638Z,41.51
2022-08-18T12:50:54.103Z,41.84
2022-08-18T12:56:51.252Z,43.81
2022-08-18T12:59:37.657Z,42.49
2022-08-18T13:02:23.235Z,44.59
2022-08-18T13:05:11.620Z,44.87
2022-08-18T13:08:04.481Z,42.63
2022-08-18T13:10:51.251Z,41.17
2022-08-18T13:13:42.601Z,43.84
2022-08-18T13:16:53.500Z,46.48
2022-08-18T13:19:39.358Z,45.20
2022-08-18T13:22:32.944Z,46.11
2022-08-18T13:25:32.626Z,43.20
2022-08-18T13:28:24.446Z,40.15
2022-08-18T13:31:16.069Z,42.25
2022-08-18T13:34:03.690Z,40.35
2022-08-18T13:36:49.694Z,41.46
2022-08-18T13:39:35.187Z,42.12
2022-08-18T13:42:26.468Z,43.88
2022-08-18T13:45:24.962Z,43.85
2022-08-18T13:48:11.450Z,43.98
2022-08-18T13:51:01.699Z,46.22
2022-08-18T13:53:59.361Z,46.00
2022-08-18T13:56:53.428Z,45.74
2022-08-18T13:59:46.746Z,45.48
2022-08-18T14:02:32.486Z,46.03
2022-08-18T14:05:18.375Z,43.55
2022-08-18T14:08:06.210Z,42.93
2022-08-18T14:10:53.711Z,42.78
2022-08-18T14:13:43.956Z,40.67
2022-08-18T14:16:29.690Z,41.59
2022-08-18T14:19:34.947Z,41.65
2022-08-18T14:22:44.501Z,38.66
2022-08-18T14:25:48.323Z,40.19
2022-08-18T14:28:34.435Z,37.83
2022-08-18T14:31:20.533Z,35.26
2022-08-18T14:34:06.417Z,37.11
2022-08-18T14:36:52.058Z,37.96
2022-08-18T14:39:38.560Z,37.78
2022-08-18T14:42:41.029Z,36.60
2022-08-18T14:45:35.425Z,35.98
2022-08-18T14:48:22.956Z,35.83
2022-08-18T14:51:10.116Z,35.02
2022-08-18T14:53:56.384Z,35.16
2022-08-18T14:56:41.667Z,37.36
2022-08-18T14:59:30.832Z,38.25
2022-08-18T15:02:20.447Z,37.76
2022-08-18T15:05:19.470Z,37.45
2022-08-18T15:08:10.898Z,36.59
2022-08-18T15:10:57.291Z,35.68
2022-08-18T15:13:45.305Z,34.78
2022-08-18T15:16:34.985Z,33.58
2022-08-18T15:19:58.576Z,33.96
2022-08-18T15:22:48.942Z,33.51
2022-08-18T15:25:44.636Z,32.85
2022-08-18T15:28:30.302Z,32.25
2022-08-18T15:31:17.103Z,31.49
2022-08-18T15:34:04.088Z,30.83
2022-08-18T15:36:49.428Z,31.42
2022-08-18T15:39:35.300Z,31.85
2022-08-18T15:42:20.805Z,31.55
2022-08-18T15:45:11.926Z,30.68
2022-08-18T15:47:57.762Z,30.47
2022-08-18T15:50:48.165Z,29.74
2022-08-18T15:53:36.783Z,29.69
2022-08-18T15:56:26.203Z,29.67
2022-08-18T15:59:12.677Z,29.73
2022-08-18T16:02:00.290Z,29.75
2022-08-18T16:04:45.733Z,29.35
2022-08-18T16:07:40.908Z,29.09
2022-08-18T16:10:32.417Z,29.31
2022-08-18T16:13:19.225Z,29.09
2022-08-18T16:16:12.127Z,28.85
2022-08-18T16:18:58.308Z,28.57
2022-08-18T16:21:43.776Z,28.91
2022-08-18T16:24:29.430Z,28.80
2022-08-18T16:27:15.009Z,28.86
2022-08-18T16:30:01.154Z,28.44
2022-08-18T16:32:47.454Z,28.35
2022-08-18T16:35:35.301Z,28.30
2022-08-18T16:38:20.965Z,28.09
2022-08-18T16:41:11.285Z,28.31
2022-08-18T16:43:58.976Z,28.13
2022-08-18T16:46:44.709Z,28.22
2022-08-18T16:49:30.224Z,28.08
2022-08-18T16:52:15.932Z,28.27
2022-08-18T16:55:01.888Z,28.34
2022-08-18T16:58:05.863Z,28.23
2022-08-18T17:01:12.623Z,28.09
2022-08-18T17:04:14.660Z,28.18
2022-08-18T17:07:06.618Z,28.08
2022-08-18T17:09:52.459Z,27.69
2022-08-18T17:12:38.101Z,27.84
2022-08-18T17:15:23.573Z,27.87
2022-08-18T17:18:09.900Z,27.57
2022-08-18T17:20:55.522Z,27.65
2022-08-18T17:23:42.168Z,27.57
2022-08-18T17:26:52.346Z,27.22
2022-08-18T17:29:47.980Z,27.27
2022-08-18T17:32:46.857Z,27.19
2022-08-18T17:35:41.451Z,27.12
2022-08-18T17:38:43.724Z,26.90
2022-08-18T17:41:29.475Z,26.95
2022-08-18T17:44:16.455Z,26.71
2022-08-18T17:47:03.687Z,26.59
2022-08-18T17:50:28.127Z,26.39
2022-08-18T17:53:14.022Z,26.32
2022-08-18T17:56:01.167Z,26.02
2022-08-18T17:58:53.200Z,26.11
2022-08-18T18:01:38.777Z,26.04
2022-08-18T18:04:24.258Z,26.02
2022-08-18T18:07:26.424Z,25.94
2022-08-18T18:13:51.400Z,25.84
2022-08-18T18:16:37.007Z,25.66
2022-08-18T18:19:27.637Z,25.30
2022-08-18T18:22:25.290Z,25.32
2022-08-18T18:25:12.856Z,25.13
2022-08-18T18:27:58.657Z,25.18
2022-08-18T18:30:44.317Z,25.23
2022-08-18T18:33:31.736Z,25.03
2022-08-18T18:36:32.053Z,24.96
2022-08-18T18:39:22.321Z,24.95
2022-08-18T18:42:25.148Z,24.93
2022-08-18T18:45:31.071Z,24.94
2022-08-18T18:48:51.729Z,24.84
2022-08-18T18:51:53.153Z,24.65
2022-08-18T18:55:09.595Z,24.53
2022-08-18T18:58:16.676Z,24.45
2022-08-18T19:01:05.573Z,24.21
2022-08-18T19:04:03.180Z,24.28
2022-08-18T19:07:07.378Z,24.18
2022-08-18T19:10:18.494Z,24.11
2022-08-18T19:13:08.403Z,24.00
2022-08-18T19:15:57.664Z,24.03
2022-08-18T19:19:35.848Z,24.01
2022-08-18T19:22:06.714Z,24.00
2022-08-18T19:25:41.613Z,23.92
2022-08-18T19:29:12.156Z,23.75
2022-08-18T19:32:16.348Z,23.62
2022-08-18T19:35:04.479Z,23.41
2022-08-18T19:38:20.758Z,23.33
2022-08-18T19:41:20.500Z,23.46
2022-08-18T19:44:15.596Z,23.53
2022-08-18T19:47:12.688Z,23.37
2022-08-18T19:50:13.587Z,23.20
2022-08-18T19:53:32.759Z,23.33
2022-08-18T19:56:58.179Z,23.34
2022-08-18T20:00:15.718Z,23.21
2022-08-18T20:03:18.439Z,23.19
2022-08-18T20:06:36.182Z,23.09
2022-08-18T20:09:33.607Z,23.04
2022-08-18T20:13:00.864Z,23.06
2022-08-18T20:16:35.558Z,23.04
2022-08-18T20:19:35.842Z,22.98
2022-08-18T20:22:21.880Z,22.81
2022-08-18T20:25:17.413Z,22.85
2022-08-18T20:28:05.440Z,22.65
2022-08-18T20:31:17.550Z,22.76
2022-08-18T20:34:14.064Z,22.77
2022-08-18T20:37:08.015Z,22.71
2022-08-18T20:39:55.004Z,22.64
2022-08-18T20:42:56.154Z,22.54
2022-08-18T20:46:13.518Z,22.36
2022-08-18T20:49:26.654Z,22.37
2022-08-18T20:52:34.726Z,22.37
2022-08-18T20:55:45.660Z,22.15
2022-08-18T20:58:36.125Z,22.19
2022-08-18T21:01:25.293Z,22.17
2022-08-18T21:04:10.859Z,21.96
2022-08-18T21:06:56.369Z,21.89
2022-08-18T21:09:50.465Z,21.98
2022-08-18T21:12:36.357Z,21.94
2022-08-18T21:15:25.761Z,21.83
2022-08-18T21:18:21.755Z,21.82
2022-08-18T21:21:26.808Z,21.59
2022-08-18T21:24:20.724Z,21.75
2022-08-18T21:27:12.139Z,21.75
2022-08-18T21:30:03.257Z,21.63
2022-08-18T21:32:49.626Z,21.74
2022-08-18T21:35:38.018Z,21.76
2022-08-18T21:38:27.176Z,21.76
2022-08-18T21:41:13.667Z,21.64
2022-08-18T21:44:04.657Z,21.56
2022-08-18T21:46:51.389Z,21.43
2022-08-18T21:49:37.698Z,21.36
2022-08-18T21:52:24.653Z,21.22
2022-08-18T21:55:26.102Z,21.33
2022-08-18T21:58:15.555Z,21.27
2022-08-18T22:01:10.064Z,21.28
2022-08-18T22:04:06.764Z,21.07
2022-08-18T22:06:56.787Z,21.00
2022-08-18T22:10:17.395Z,20.92
2022-08-18T22:13:21.643Z,21.13
2022-08-18T22:16:30.757Z,21.17
2022-08-18T22:19:19.036Z,21.07
2022-08-18T22:22:26.298Z,21.06
2022-08-18T22:25:22.029Z,21.02
2022-08-18T22:28:07.365Z,20.84
2022-08-18T22:30:52.776Z,20.99
2022-08-18T22:33:39.438Z,21.11
2022-08-18T22:36:32.208Z,21.05
2022-08-18T22:39:37.182Z,21.11
2022-08-18T22:42:25.870Z,20.98
2022-08-18T22:45:14.051Z,21.02
2022-08-18T22:47:59.456Z,20.74
2022-08-18T22:50:46.139Z,20.80
2022-08-18T22:53:31.739Z,20.91
2022-08-18T22:56:34.053Z,20.87
2022-08-18T22:59:20.924Z,20.87
2022-08-18T23:02:06.820Z,20.75
2022-08-18T23:04:52.491Z,20.64
2022-08-18T23:07:38.105Z,20.65
2022-08-18T23:10:23.482Z,20.63
2022-08-18T23:13:08.988Z,20.53
2022-08-18T23:15:54.568Z,20.61
2022-08-18T23:19:02.034Z,20.53
2022-08-18T23:21:48.550Z,20.51
2022-08-18T23:24:33.978Z,20.48
2022-08-18T23:27:21.710Z,20.51
2022-08-18T23:30:07.789Z,20.38
2022-08-18T23:32:53.095Z,20.40
2022-08-18T23:35:40.313Z,20.36
2022-08-18T23:38:31.660Z,20.36
2022-08-18T23:41:17.846Z,20.32
2022-08-18T23:44:03.426Z,20.35
2022-08-18T23:46:49.335Z,20.32
2022-08-18T23:49:36.389Z,20.36
2022-08-18T23:52:21.778Z,20.23
2022-08-18T23:55:12.977Z,20.17
2022-08-18T23:57:58.622Z,20.28
